sensor_id;sensor_type;location;lat;lon;timestamp;P1;durP1;ratioP1;P2;durP2;ratioP2
22814;SDS011;11574;51.058;13.712;2023-11-19T00:04:56;11.80;;;7.60;;
22814;SDS011;11574;51.058;13.712;2023-11-19T00:09:59;14.37;;;7.70;;
22814;SDS011;11574;51.058;13.712;2023-11-19T00:15:10;15.00;;;8.10;;
22814;SDS011;11574;51.058;13.712;2023-11-19T00:20:14;11.37;;;7.30;;
22814;SDS011;11574;51.058;13.712;2023-11-19T00:25:18;12.10;;;7.10;;
22814;SDS011;11574;51.058;13.712;2023-11-19T00:30:21;12.57;;;7.20;;
22814;SDS011;11574;51.058;13.712;2023-11-19T00:35:26;16.20;;;8.07;;
22814;SDS011;11574;51.058;13.712;2023-11-19T00:40:34;13.73;;;8.17;;
22814;SDS011;11574;51.058;13.712;2023-11-19T00:45:38;16.33;;;8.47;;
22814;SDS011;11574;51.058;13.712;2023-11-19T00:50:42;15.73;;;8.27;;
22814;SDS011;11574;51.058;13.712;2023-11-19T00:55:45;15.63;;;8.23;;
22814;SDS011;11574;51.058;13.712;2023-11-19T01:00:49;12.50;;;7.57;;
22814;SDS011;11574;51.058;13.712;2023-11-19T01:05:52;13.57;;;7.27;;
22814;SDS011;11574;51.058;13.712;2023-11-19T01:10:54;12.07;;;6.70;;
22814;SDS011;11574;51.058;13.712;2023-11-19T01:15:57;10.03;;;6.47;;
22814;SDS011;11574;51.058;13.712;2023-11-19T01:21:00;11.60;;;7.07;;
22814;SDS011;11574;51.058;13.712;2023-11-19T01:26:03;14.07;;;6.83;;
22814;SDS011;11574;51.058;13.712;2023-11-19T01:31:10;10.30;;;6.10;;
22814;SDS011;11574;51.058;13.712;2023-11-19T01:36:15;10.43;;;6.10;;
22814;SDS011;11574;51.058;13.712;2023-11-19T01:41:17;9.17;;;5.73;;
22814;SDS011;11574;51.058;13.712;2023-11-19T01:46:19;9.57;;;6.03;;
22814;SDS011;11574;51.058;13.712;2023-11-19T01:51:23;9.40;;;5.43;;
22814;SDS011;11574;51.058;13.712;2023-11-19T01:56:25;9.40;;;5.43;;
22814;SDS011;11574;51.058;13.712;2023-11-19T02:01:29;7.87;;;4.70;;
22814;SDS011;11574;51.058;13.712;2023-11-19T02:06:34;7.63;;;4.90;;
22814;SDS011;11574;51.058;13.712;2023-11-19T02:11:36;7.90;;;4.83;;
22814;SDS011;11574;51.058;13.712;2023-11-19T02:16:40;6.30;;;4.13;;
22814;SDS011;11574;51.058;13.712;2023-11-19T02:21:44;6.90;;;4.23;;
22814;SDS011;11574;51.058;13.712;2023-11-19T02:26:47;6.90;;;4.17;;
22814;SDS011;11574;51.058;13.712;2023-11-19T02:31:59;4.13;;;2.90;;
22814;SDS011;11574;51.058;13.712;2023-11-19T02:37:03;4.67;;;3.13;;
22814;SDS011;11574;51.058;13.712;2023-11-19T02:42:06;3.67;;;2.10;;
22814;SDS011;11574;51.058;13.712;2023-11-19T02:47:09;3.20;;;1.90;;
22814;SDS011;11574;51.058;13.712;2023-11-19T02:52:12;3.47;;;2.27;;
22814;SDS011;11574;51.058;13.712;2023-11-19T02:57:14;4.50;;;2.57;;
22814;SDS011;11574;51.058;13.712;2023-11-19T03:02:20;3.23;;;1.80;;
22814;SDS011;11574;51.058;13.712;2023-11-19T03:07:26;2.73;;;1.80;;
22814;SDS011;11574;51.058;13.712;2023-11-19T03:12:30;1.90;;;1.40;;
22814;SDS011;11574;51.058;13.712;2023-11-19T03:17:34;3.97;;;1.70;;
22814;SDS011;11574;51.058;13.712;2023-11-19T03:22:36;3.67;;;2.10;;
22814;SDS011;11574;51.058;13.712;2023-11-19T03:27:39;3.83;;;1.93;;
22814;SDS011;11574;51.058;13.712;2023-11-19T03:32:44;2.33;;;1.70;;
22814;SDS011;11574;51.058;13.712;2023-11-19T03:37:46;2.60;;;1.70;;
22814;SDS011;11574;51.058;13.712;2023-11-19T03:42:50;4.53;;;1.60;;
22814;SDS011;11574;51.058;13.712;2023-11-19T03:47:54;2.07;;;1.60;;
22814;SDS011;11574;51.058;13.712;2023-11-19T03:52:56;2.53;;;1.63;;
22814;SDS011;11574;51.058;13.712;2023-11-19T03:57:59;5.47;;;1.50;;
22814;SDS011;11574;51.058;13.712;2023-11-19T04:03:03;4.03;;;1.80;;
22814;SDS011;11574;51.058;13.712;2023-11-19T04:08:05;2.77;;;1.83;;
22814;SDS011;11574;51.058;13.712;2023-11-19T04:13:07;3.70;;;2.10;;
22814;SDS011;11574;51.058;13.712;2023-11-19T04:18:11;2.60;;;1.80;;
22814;SDS011;11574;51.058;13.712;2023-11-19T04:23:19;4.00;;;2.37;;
22814;SDS011;11574;51.058;13.712;2023-11-19T04:28:23;3.80;;;2.30;;
22814;SDS011;11574;51.058;13.712;2023-11-19T04:33:28;5.53;;;3.27;;
22814;SDS011;11574;51.058;13.712;2023-11-19T04:38:32;10.97;;;2.93;;
22814;SDS011;11574;51.058;13.712;2023-11-19T04:43:36;5.03;;;2.73;;
22814;SDS011;11574;51.058;13.712;2023-11-19T04:48:43;6.33;;;3.60;;
22814;SDS011;11574;51.058;13.712;2023-11-19T04:53:46;7.27;;;3.00;;
22814;SDS011;11574;51.058;13.712;2023-11-19T04:58:49;4.97;;;3.03;;
22814;SDS011;11574;51.058;13.712;2023-11-19T05:03:55;5.50;;;3.03;;
22814;SDS011;11574;51.058;13.712;2023-11-19T05:09:03;5.30;;;3.03;;
22814;SDS011;11574;51.058;13.712;2023-11-19T05:14:07;6.87;;;3.60;;
22814;SDS011;11574;51.058;13.712;2023-11-19T05:19:11;6.87;;;3.47;;
22814;SDS011;11574;51.058;13.712;2023-11-19T05:24:16;5.23;;;3.17;;
22814;SDS011;11574;51.058;13.712;2023-11-19T05:29:30;5.80;;;3.47;;
22814;SDS011;11574;51.058;13.712;2023-11-19T05:34:45;5.97;;;3.73;;
22814;SDS011;11574;51.058;13.712;2023-11-19T05:39:47;6.10;;;3.70;;
22814;SDS011;11574;51.058;13.712;2023-11-19T05:44:55;6.23;;;3.90;;
22814;SDS011;11574;51.058;13.712;2023-11-19T05:49:59;6.30;;;3.73;;
22814;SDS011;11574;51.058;13.712;2023-11-19T05:55:02;8.07;;;4.47;;
22814;SDS011;11574;51.058;13.712;2023-11-19T06:00:09;7.73;;;4.30;;
22814;SDS011;11574;51.058;13.712;2023-11-19T06:05:16;10.13;;;5.30;;
22814;SDS011;11574;51.058;13.712;2023-11-19T06:10:19;7.97;;;4.80;;
22814;SDS011;11574;51.058;13.712;2023-11-19T06:15:22;8.40;;;5.53;;
22814;SDS011;11574;51.058;13.712;2023-11-19T06:20:26;9.80;;;5.67;;
22814;SDS011;11574;51.058;13.712;2023-11-19T06:25:29;9.30;;;5.47;;
22814;SDS011;11574;51.058;13.712;2023-11-19T06:30:32;8.00;;;5.27;;
22814;SDS011;11574;51.058;13.712;2023-11-19T06:35:37;10.37;;;5.67;;
22814;SDS011;11574;51.058;13.712;2023-11-19T06:40:43;7.93;;;4.80;;
22814;SDS011;11574;51.058;13.712;2023-11-19T06:46:02;6.33;;;4.47;;
22814;SDS011;11574;51.058;13.712;2023-11-19T06:51:10;8.77;;;4.73;;
22814;SDS011;11574;51.058;13.712;2023-11-19T06:56:19;5.83;;;4.50;;
22814;SDS011;11574;51.058;13.712;2023-11-19T07:01:22;7.87;;;4.50;;
22814;SDS011;11574;51.058;13.712;2023-11-19T07:06:26;6.57;;;4.03;;
22814;SDS011;11574;51.058;13.712;2023-11-19T07:11:28;8.07;;;4.33;;
22814;SDS011;11574;51.058;13.712;2023-11-19T07:16:35;4.57;;;3.37;;
22814;SDS011;11574;51.058;13.712;2023-11-19T07:21:42;7.17;;;3.13;;
22814;SDS011;11574;51.058;13.712;2023-11-19T07:26:45;3.73;;;3.00;;
22814;SDS011;11574;51.058;13.712;2023-11-19T07:31:48;5.67;;;3.10;;
22814;SDS011;11574;51.058;13.712;2023-11-19T07:36:52;5.37;;;3.20;;
22814;SDS011;11574;51.058;13.712;2023-11-19T07:41:57;6.60;;;3.10;;
22814;SDS011;11574;51.058;13.712;2023-11-19T07:47:00;3.93;;;2.73;;
22814;SDS011;11574;51.058;13.712;2023-11-19T07:52:05;3.47;;;2.53;;
22814;SDS011;11574;51.058;13.712;2023-11-19T07:57:21;3.83;;;2.70;;
22814;SDS011;11574;51.058;13.712;2023-11-19T08:02:27;5.63;;;2.47;;
22814;SDS011;11574;51.058;13.712;2023-11-19T08:07:32;3.40;;;2.07;;
22814;SDS011;11574;51.058;13.712;2023-11-19T08:12:34;2.90;;;2.30;;
22814;SDS011;11574;51.058;13.712;2023-11-19T08:17:38;4.37;;;2.07;;
22814;SDS011;11574;51.058;13.712;2023-11-19T08:22:42;2.87;;;2.30;;
22814;SDS011;11574;51.058;13.712;2023-11-19T08:27:44;2.90;;;1.90;;
22814;SDS011;11574;51.058;13.712;2023-11-19T08:32:46;3.20;;;1.93;;
22814;SDS011;11574;51.058;13.712;2023-11-19T08:37:50;2.10;;;1.50;;
22814;SDS011;11574;51.058;13.712;2023-11-19T08:42:53;2.07;;;1.30;;
22814;SDS011;11574;51.058;13.712;2023-11-19T08:47:56;1.83;;;1.57;;
22814;SDS011;11574;51.058;13.712;2023-11-19T08:53:00;4.37;;;1.60;;
22814;SDS011;11574;51.058;13.712;2023-11-19T08:58:04;4.47;;;1.90;;
22814;SDS011;11574;51.058;13.712;2023-11-19T09:03:07;2.90;;;1.50;;
22814;SDS011;11574;51.058;13.712;2023-11-19T09:08:15;3.30;;;1.83;;
22814;SDS011;11574;51.058;13.712;2023-11-19T09:13:18;1.33;;;0.93;;
22814;SDS011;11574;51.058;13.712;2023-11-19T09:18:20;3.40;;;0.70;;
22814;SDS011;11574;51.058;13.712;2023-11-19T09:23:27;5.03;;;0.83;;
22814;SDS011;11574;51.058;13.712;2023-11-19T09:28:32;2.13;;;0.40;;
22814;SDS011;11574;51.058;13.712;2023-11-19T09:33:37;2.03;;;0.60;;
22814;SDS011;11574;51.058;13.712;2023-11-19T09:38:45;3.63;;;0.80;;
22814;SDS011;11574;51.058;13.712;2023-11-19T09:43:47;5.53;;;0.90;;
22814;SDS011;11574;51.058;13.712;2023-11-19T09:48:50;4.57;;;0.83;;
22814;SDS011;11574;51.058;13.712;2023-11-19T09:54:02;1.27;;;0.63;;
22814;SDS011;11574;51.058;13.712;2023-11-19T09:59:04;4.47;;;0.90;;
22814;SDS011;11574;51.058;13.712;2023-11-19T10:04:07;2.93;;;0.77;;
22814;SDS011;11574;51.058;13.712;2023-11-19T10:09:12;3.73;;;0.80;;
22814;SDS011;11574;51.058;13.712;2023-11-19T10:14:16;3.83;;;0.90;;
22814;SDS011;11574;51.058;13.712;2023-11-19T10:19:19;6.53;;;2.47;;
22814;SDS011;11574;51.058;13.712;2023-11-19T10:24:32;4.33;;;0.90;;
22814;SDS011;11574;51.058;13.712;2023-11-19T10:29:36;2.43;;;0.70;;
22814;SDS011;11574;51.058;13.712;2023-11-19T10:34:38;5.27;;;1.47;;
22814;SDS011;11574;51.058;13.712;2023-11-19T10:39:53;4.53;;;1.30;;
22814;SDS011;11574;51.058;13.712;2023-11-19T10:44:56;3.60;;;1.23;;
22814;SDS011;11574;51.058;13.712;2023-11-19T10:49:58;2.23;;;1.10;;
22814;SDS011;11574;51.058;13.712;2023-11-19T10:55:02;6.70;;;2.80;;
22814;SDS011;11574;51.058;13.712;2023-11-19T11:00:06;1.70;;;0.80;;
22814;SDS011;11574;51.058;13.712;2023-11-19T11:05:12;1.87;;;0.83;;
22814;SDS011;11574;51.058;13.712;2023-11-19T11:10:18;2.03;;;0.83;;
22814;SDS011;11574;51.058;13.712;2023-11-19T11:15:22;6.40;;;1.10;;
22814;SDS011;11574;51.058;13.712;2023-11-19T11:20:27;2.03;;;0.70;;
22814;SDS011;11574;51.058;13.712;2023-11-19T11:25:37;1.37;;;0.60;;
22814;SDS011;11574;51.058;13.712;2023-11-19T11:30:46;4.53;;;1.17;;
22814;SDS011;11574;51.058;13.712;2023-11-19T11:35:53;4.63;;;0.70;;
22814;SDS011;11574;51.058;13.712;2023-11-19T11:41:17;3.67;;;1.03;;
22814;SDS011;11574;51.058;13.712;2023-11-19T11:51:57;5.33;;;0.80;;
22814;SDS011;11574;51.058;13.712;2023-11-19T11:57:06;6.13;;;1.00;;
22814;SDS011;11574;51.058;13.712;2023-11-19T12:02:09;4.60;;;1.33;;
22814;SDS011;11574;51.058;13.712;2023-11-19T12:07:12;8.67;;;1.40;;
22814;SDS011;11574;51.058;13.712;2023-11-19T12:12:20;5.77;;;1.07;;
22814;SDS011;11574;51.058;13.712;2023-11-19T12:17:42;4.80;;;1.20;;
22814;SDS011;11574;51.058;13.712;2023-11-19T12:22:49;8.40;;;1.87;;
22814;SDS011;11574;51.058;13.712;2023-11-19T12:27:53;9.90;;;1.50;;
22814;SDS011;11574;51.058;13.712;2023-11-19T12:32:55;9.10;;;2.63;;
22814;SDS011;11574;51.058;13.712;2023-11-19T12:37:57;6.13;;;1.60;;
22814;SDS011;11574;51.058;13.712;2023-11-19T12:43:01;9.57;;;2.13;;
22814;SDS011;11574;51.058;13.712;2023-11-19T12:48:06;6.83;;;1.77;;
22814;SDS011;11574;51.058;13.712;2023-11-19T12:53:09;8.30;;;1.60;;
22814;SDS011;11574;51.058;13.712;2023-11-19T13:03:30;8.20;;;1.63;;
22814;SDS011;11574;51.058;13.712;2023-11-19T13:08:37;7.77;;;1.60;;
22814;SDS011;11574;51.058;13.712;2023-11-19T13:13:54;13.30;;;2.13;;
22814;SDS011;11574;51.058;13.712;2023-11-19T13:18:59;9.03;;;1.80;;
22814;SDS011;11574;51.058;13.712;2023-11-19T13:24:01;8.30;;;2.30;;
22814;SDS011;11574;51.058;13.712;2023-11-19T13:29:03;12.30;;;2.00;;
22814;SDS011;11574;51.058;13.712;2023-11-19T13:34:14;12.50;;;2.13;;
22814;SDS011;11574;51.058;13.712;2023-11-19T13:39:19;15.27;;;2.40;;
22814;SDS011;11574;51.058;13.712;2023-11-19T13:44:26;8.13;;;2.20;;
22814;SDS011;11574;51.058;13.712;2023-11-19T13:49:29;10.13;;;1.97;;
22814;SDS011;11574;51.058;13.712;2023-11-19T13:54:32;9.77;;;2.57;;
22814;SDS011;11574;51.058;13.712;2023-11-19T13:59:39;9.23;;;2.27;;
22814;SDS011;11574;51.058;13.712;2023-11-19T14:04:43;10.60;;;2.50;;
22814;SDS011;11574;51.058;13.712;2023-11-19T14:09:46;12.93;;;2.53;;
22814;SDS011;11574;51.058;13.712;2023-11-19T14:14:52;9.43;;;1.77;;
22814;SDS011;11574;51.058;13.712;2023-11-19T14:19:56;14.33;;;2.03;;
22814;SDS011;11574;51.058;13.712;2023-11-19T14:24:59;10.13;;;2.00;;
22814;SDS011;11574;51.058;13.712;2023-11-19T14:30:01;11.70;;;2.20;;
22814;SDS011;11574;51.058;13.712;2023-11-19T14:35:05;16.27;;;2.93;;
22814;SDS011;11574;51.058;13.712;2023-11-19T14:40:09;10.17;;;2.27;;
22814;SDS011;11574;51.058;13.712;2023-11-19T14:45:12;9.93;;;2.63;;
22814;SDS011;11574;51.058;13.712;2023-11-19T14:50:15;7.93;;;2.20;;
22814;SDS011;11574;51.058;13.712;2023-11-19T14:55:17;9.97;;;3.10;;
22814;SDS011;11574;51.058;13.712;2023-11-19T15:00:21;17.10;;;2.40;;
22814;SDS011;11574;51.058;13.712;2023-11-19T15:05:25;8.83;;;2.50;;
22814;SDS011;11574;51.058;13.712;2023-11-19T15:10:29;10.47;;;2.23;;
22814;SDS011;11574;51.058;13.712;2023-11-19T15:15:33;10.57;;;2.10;;
22814;SDS011;11574;51.058;13.712;2023-11-19T15:20:36;17.37;;;2.63;;
22814;SDS011;11574;51.058;13.712;2023-11-19T15:25:39;18.43;;;3.53;;
22814;SDS011;11574;51.058;13.712;2023-11-19T15:30:44;13.27;;;2.63;;
22814;SDS011;11574;51.058;13.712;2023-11-19T15:35:56;9.77;;;2.80;;
22814;SDS011;11574;51.058;13.712;2023-11-19T15:41:00;15.40;;;2.83;;
22814;SDS011;11574;51.058;13.712;2023-11-19T15:46:05;15.17;;;2.20;;
22814;SDS011;11574;51.058;13.712;2023-11-19T15:51:12;18.53;;;3.53;;
22814;SDS011;11574;51.058;13.712;2023-11-19T15:56:17;11.53;;;2.17;;
22814;SDS011;11574;51.058;13.712;2023-11-19T16:01:20;10.87;;;2.27;;
22814;SDS011;11574;51.058;13.712;2023-11-19T16:06:26;17.80;;;3.63;;
22814;SDS011;11574;51.058;13.712;2023-11-19T16:11:28;16.03;;;2.77;;
22814;SDS011;11574;51.058;13.712;2023-11-19T16:16:31;14.23;;;2.70;;
22814;SDS011;11574;51.058;13.712;2023-11-19T16:21:34;10.37;;;2.73;;
22814;SDS011;11574;51.058;13.712;2023-11-19T16:26:37;8.70;;;2.00;;
22814;SDS011;11574;51.058;13.712;2023-11-19T16:31:39;12.20;;;2.23;;
22814;SDS011;11574;51.058;13.712;2023-11-19T16:36:44;11.07;;;2.90;;
22814;SDS011;11574;51.058;13.712;2023-11-19T16:41:46;14.03;;;2.67;;
22814;SDS011;11574;51.058;13.712;2023-11-19T16:46:48;6.40;;;1.80;;
22814;SDS011;11574;51.058;13.712;2023-11-19T16:51:52;14.67;;;2.80;;
22814;SDS011;11574;51.058;13.712;2023-11-19T16:56:58;15.17;;;2.77;;
22814;SDS011;11574;51.058;13.712;2023-11-19T17:02:00;10.80;;;2.23;;
22814;SDS011;11574;51.058;13.712;2023-11-19T17:07:04;7.37;;;1.90;;
22814;SDS011;11574;51.058;13.712;2023-11-19T17:12:08;7.90;;;2.30;;
22814;SDS011;11574;51.058;13.712;2023-11-19T17:17:10;15.07;;;2.57;;
22814;SDS011;11574;51.058;13.712;2023-11-19T17:22:17;10.70;;;1.90;;
22814;SDS011;11574;51.058;13.712;2023-11-19T17:27:20;10.67;;;2.33;;
22814;SDS011;11574;51.058;13.712;2023-11-19T17:32:24;15.67;;;2.63;;
22814;SDS011;11574;51.058;13.712;2023-11-19T17:37:28;13.67;;;2.60;;
22814;SDS011;11574;51.058;13.712;2023-11-19T17:42:32;11.33;;;2.00;;
22814;SDS011;11574;51.058;13.712;2023-11-19T17:47:34;9.03;;;2.90;;
22814;SDS011;11574;51.058;13.712;2023-11-19T17:52:40;11.10;;;2.40;;
22814;SDS011;11574;51.058;13.712;2023-11-19T17:57:46;8.23;;;2.13;;
22814;SDS011;11574;51.058;13.712;2023-11-19T18:02:50;14.00;;;2.47;;
22814;SDS011;11574;51.058;13.712;2023-11-19T18:07:54;12.27;;;2.20;;
22814;SDS011;11574;51.058;13.712;2023-11-19T18:13:00;11.80;;;2.40;;
22814;SDS011;11574;51.058;13.712;2023-11-19T18:18:03;11.23;;;2.20;;
22814;SDS011;11574;51.058;13.712;2023-11-19T18:23:07;11.83;;;2.47;;
22814;SDS011;11574;51.058;13.712;2023-11-19T18:28:10;13.60;;;2.23;;
22814;SDS011;11574;51.058;13.712;2023-11-19T18:33:13;11.80;;;2.73;;
22814;SDS011;11574;51.058;13.712;2023-11-19T18:38:21;6.77;;;2.13;;
22814;SDS011;11574;51.058;13.712;2023-11-19T18:43:23;14.33;;;2.20;;
22814;SDS011;11574;51.058;13.712;2023-11-19T18:48:26;11.63;;;2.73;;
22814;SDS011;11574;51.058;13.712;2023-11-19T18:53:30;12.40;;;1.97;;
22814;SDS011;11574;51.058;13.712;2023-11-19T18:58:33;7.53;;;1.93;;
22814;SDS011;11574;51.058;13.712;2023-11-19T19:03:35;9.80;;;2.23;;
22814;SDS011;11574;51.058;13.712;2023-11-19T19:08:39;10.10;;;2.47;;
22814;SDS011;11574;51.058;13.712;2023-11-19T19:13:42;10.50;;;2.10;;
22814;SDS011;11574;51.058;13.712;2023-11-19T19:18:45;11.83;;;2.63;;
22814;SDS011;11574;51.058;13.712;2023-11-19T19:23:51;9.90;;;1.90;;
22814;SDS011;11574;51.058;13.712;2023-11-19T19:28:53;12.53;;;2.43;;
22814;SDS011;11574;51.058;13.712;2023-11-19T19:33:55;8.47;;;2.20;;
22814;SDS011;11574;51.058;13.712;2023-11-19T19:39:00;12.27;;;1.93;;
22814;SDS011;11574;51.058;13.712;2023-11-19T19:44:03;9.10;;;2.33;;
22814;SDS011;11574;51.058;13.712;2023-11-19T19:49:05;9.47;;;2.03;;
22814;SDS011;11574;51.058;13.712;2023-11-19T19:54:10;8.17;;;1.77;;
22814;SDS011;11574;51.058;13.712;2023-11-19T19:59:12;9.53;;;2.37;;
22814;SDS011;11574;51.058;13.712;2023-11-19T20:04:14;8.60;;;1.57;;
22814;SDS011;11574;51.058;13.712;2023-11-19T20:09:19;7.80;;;2.03;;
22814;SDS011;11574;51.058;13.712;2023-11-19T20:14:23;12.53;;;2.20;;
22814;SDS011;11574;51.058;13.712;2023-11-19T20:19:27;11.43;;;2.50;;
22814;SDS011;11574;51.058;13.712;2023-11-19T20:24:31;13.50;;;1.87;;
22814;SDS011;11574;51.058;13.712;2023-11-19T20:29:33;8.47;;;2.20;;
22814;SDS011;11574;51.058;13.712;2023-11-19T20:34:35;11.17;;;2.07;;
22814;SDS011;11574;51.058;13.712;2023-11-19T20:39:39;9.37;;;1.67;;
22814;SDS011;11574;51.058;13.712;2023-11-19T20:44:41;11.53;;;2.07;;
22814;SDS011;11574;51.058;13.712;2023-11-19T20:49:43;13.00;;;2.40;;
22814;SDS011;11574;51.058;13.712;2023-11-19T20:54:47;5.60;;;1.73;;
22814;SDS011;11574;51.058;13.712;2023-11-19T20:59:50;8.70;;;1.70;;
22814;SDS011;11574;51.058;13.712;2023-11-19T21:04:52;11.57;;;2.27;;
22814;SDS011;11574;51.058;13.712;2023-11-19T21:09:56;9.60;;;1.60;;
22814;SDS011;11574;51.058;13.712;2023-11-19T21:14:59;8.03;;;2.13;;
22814;SDS011;11574;51.058;13.712;2023-11-19T21:20:03;7.77;;;1.53;;
22814;SDS011;11574;51.058;13.712;2023-11-19T21:25:09;10.53;;;1.80;;
22814;SDS011;11574;51.058;13.712;2023-11-19T21:30:12;8.17;;;1.57;;
22814;SDS011;11574;51.058;13.712;2023-11-19T21:35:16;9.93;;;2.23;;
22814;SDS011;11574;51.058;13.712;2023-11-19T21:40:20;9.03;;;1.70;;
22814;SDS011;11574;51.058;13.712;2023-11-19T21:45:25;6.43;;;1.63;;
22814;SDS011;11574;51.058;13.712;2023-11-19T21:50:27;8.47;;;1.53;;
22814;SDS011;11574;51.058;13.712;2023-11-19T21:55:31;7.07;;;1.90;;
22814;SDS011;11574;51.058;13.712;2023-11-19T22:00:35;8.30;;;1.63;;
22814;SDS011;11574;51.058;13.712;2023-11-19T22:05:38;8.00;;;1.50;;
22814;SDS011;11574;51.058;13.712;2023-11-19T22:10:42;5.43;;;1.27;;
22814;SDS011;11574;51.058;13.712;2023-11-19T22:15:44;10.87;;;2.13;;
22814;SDS011;11574;51.058;13.712;2023-11-19T22:20:47;10.80;;;2.03;;
22814;SDS011;11574;51.058;13.712;2023-11-19T22:25:50;9.33;;;1.60;;
22814;SDS011;11574;51.058;13.712;2023-11-19T22:30:53;6.23;;;1.83;;
22814;SDS011;11574;51.058;13.712;2023-11-19T22:35:55;24.47;;;7.40;;
22814;SDS011;11574;51.058;13.712;2023-11-19T22:40:59;6.10;;;1.70;;
22814;SDS011;11574;51.058;13.712;2023-11-19T22:46:02;11.27;;;1.90;;
22814;SDS011;11574;51.058;13.712;2023-11-19T22:51:07;9.30;;;2.97;;
22814;SDS011;11574;51.058;13.712;2023-11-19T22:56:11;7.63;;;2.33;;
22814;SDS011;11574;51.058;13.712;2023-11-19T23:01:16;14.07;;;3.13;;
22814;SDS011;11574;51.058;13.712;2023-11-19T23:06:18;7.93;;;2.70;;
22814;SDS011;11574;51.058;13.712;2023-11-19T23:11:22;8.43;;;1.60;;
22814;SDS011;11574;51.058;13.712;2023-11-19T23:16:24;11.17;;;2.37;;
22814;SDS011;11574;51.058;13.712;2023-11-19T23:21:27;12.83;;;2.47;;
22814;SDS011;11574;51.058;13.712;2023-11-19T23:26:30;7.40;;;1.80;;
22814;SDS011;11574;51.058;13.712;2023-11-19T23:31:33;8.57;;;2.10;;
22814;SDS011;11574;51.058;13.712;2023-11-19T23:36:35;9.63;;;2.10;;
22814;SDS011;11574;51.058;13.712;2023-11-19T23:41:39;7.97;;;1.73;;
22814;SDS011;11574;51.058;13.712;2023-11-19T23:46:42;11.43;;;3.07;;
22814;SDS011;11574;51.058;13.712;2023-11-19T23:51:44;13.23;;;2.33;;
22814;SDS011;11574;51.058;13.712;2023-11-19T23:56:48;14.57;;;3.17;;
